sensor_id;sensor_type;location;lat;lon;timestamp;P1;durP1;ratioP1;P2;durP2;ratioP2
31210;SDS011;17836;50.948;3.946;2023-04-06T00:00:50;24.80;;;15.82;;
31210;SDS011;17836;50.948;3.946;2023-04-06T00:03:15;26.25;;;15.52;;
31210;SDS011;17836;50.948;3.946;2023-04-06T00:05:43;27.60;;;16.08;;
31210;SDS011;17836;50.948;3.946;2023-04-06T00:08:08;27.00;;;15.15;;
31210;SDS011;17836;50.948;3.946;2023-04-06T00:10:36;24.63;;;15.70;;
31210;SDS011;17836;50.948;3.946;2023-04-06T00:13:01;24.92;;;15.98;;
31210;SDS011;17836;50.948;3.946;2023-04-06T00:15:27;28.35;;;16.45;;
31210;SDS011;17836;50.948;3.946;2023-04-06T00:17:52;26.58;;;16.05;;
31210;SDS011;17836;50.948;3.946;2023-04-06T00:20:18;23.10;;;15.15;;
31210;SDS011;17836;50.948;3.946;2023-04-06T00:22:43;23.08;;;15.15;;
31210;SDS011;17836;50.948;3.946;2023-04-06T00:25:08;24.10;;;15.88;;
31210;SDS011;17836;50.948;3.946;2023-04-06T00:27:37;25.13;;;16.23;;
31210;SDS011;17836;50.948;3.946;2023-04-06T00:30:06;27.90;;;15.82;;
31210;SDS011;17836;50.948;3.946;2023-04-06T00:32:32;23.10;;;15.13;;
31210;SDS011;17836;50.948;3.946;2023-04-06T00:35:01;24.13;;;15.52;;
31210;SDS011;17836;50.948;3.946;2023-04-06T00:37:26;24.85;;;15.05;;
31210;SDS011;17836;50.948;3.946;2023-04-06T00:39:52;26.15;;;16.70;;
31210;SDS011;17836;50.948;3.946;2023-04-06T00:42:17;22.60;;;15.33;;
31210;SDS011;17836;50.948;3.946;2023-04-06T00:44:50;26.02;;;16.00;;
31210;SDS011;17836;50.948;3.946;2023-04-06T00:47:17;24.30;;;15.10;;
31210;SDS011;17836;50.948;3.946;2023-04-06T00:49:42;26.15;;;16.05;;
31210;SDS011;17836;50.948;3.946;2023-04-06T00:52:10;24.95;;;15.43;;
31210;SDS011;17836;50.948;3.946;2023-04-06T00:54:35;23.73;;;15.48;;
31210;SDS011;17836;50.948;3.946;2023-04-06T00:57:01;28.38;;;15.82;;
31210;SDS011;17836;50.948;3.946;2023-04-06T00:59:27;28.43;;;16.07;;
31210;SDS011;17836;50.948;3.946;2023-04-06T01:01:55;28.95;;;15.63;;
31210;SDS011;17836;50.948;3.946;2023-04-06T01:04:22;25.80;;;17.23;;
31210;SDS011;17836;50.948;3.946;2023-04-06T01:06:48;29.23;;;16.20;;
31210;SDS011;17836;50.948;3.946;2023-04-06T01:09:19;26.63;;;16.08;;
31210;SDS011;17836;50.948;3.946;2023-04-06T01:11:44;25.00;;;15.55;;
31210;SDS011;17836;50.948;3.946;2023-04-06T01:14:09;23.88;;;16.20;;
31210;SDS011;17836;50.948;3.946;2023-04-06T01:16:35;27.80;;;15.75;;
31210;SDS011;17836;50.948;3.946;2023-04-06T01:19:01;26.15;;;15.90;;
31210;SDS011;17836;50.948;3.946;2023-04-06T01:21:28;30.40;;;16.65;;
31210;SDS011;17836;50.948;3.946;2023-04-06T01:23:55;31.30;;;16.17;;
31210;SDS011;17836;50.948;3.946;2023-04-06T01:26:20;25.13;;;15.75;;
31210;SDS011;17836;50.948;3.946;2023-04-06T01:28:47;27.38;;;15.85;;
31210;SDS011;17836;50.948;3.946;2023-04-06T01:31:13;27.70;;;16.23;;
31210;SDS011;17836;50.948;3.946;2023-04-06T01:33:38;23.73;;;15.23;;
31210;SDS011;17836;50.948;3.946;2023-04-06T01:36:03;22.17;;;15.43;;
31210;SDS011;17836;50.948;3.946;2023-04-06T01:38:29;25.80;;;15.82;;
31210;SDS011;17836;50.948;3.946;2023-04-06T01:40:55;24.60;;;15.75;;
31210;SDS011;17836;50.948;3.946;2023-04-06T01:43:22;32.90;;;17.25;;
31210;SDS011;17836;50.948;3.946;2023-04-06T01:45:48;25.73;;;16.33;;
31210;SDS011;17836;50.948;3.946;2023-04-06T01:48:13;27.77;;;16.73;;
31210;SDS011;17836;50.948;3.946;2023-04-06T01:50:38;27.08;;;16.38;;
31210;SDS011;17836;50.948;3.946;2023-04-06T01:53:04;27.13;;;16.92;;
31210;SDS011;17836;50.948;3.946;2023-04-06T01:55:31;25.60;;;16.38;;
31210;SDS011;17836;50.948;3.946;2023-04-06T01:57:56;28.53;;;16.47;;
31210;SDS011;17836;50.948;3.946;2023-04-06T02:00:22;28.85;;;16.75;;
31210;SDS011;17836;50.948;3.946;2023-04-06T02:02:47;24.58;;;16.63;;
31210;SDS011;17836;50.948;3.946;2023-04-06T02:05:15;27.05;;;16.45;;
31210;SDS011;17836;50.948;3.946;2023-04-06T02:07:40;27.02;;;16.80;;
31210;SDS011;17836;50.948;3.946;2023-04-06T02:10:10;25.75;;;16.50;;
31210;SDS011;17836;50.948;3.946;2023-04-06T02:12:35;28.15;;;16.10;;
31210;SDS011;17836;50.948;3.946;2023-04-06T02:15:01;28.73;;;16.47;;
31210;SDS011;17836;50.948;3.946;2023-04-06T02:17:28;27.75;;;17.33;;
31210;SDS011;17836;50.948;3.946;2023-04-06T02:19:53;38.10;;;17.58;;
31210;SDS011;17836;50.948;3.946;2023-04-06T02:22:21;27.20;;;16.83;;
31210;SDS011;17836;50.948;3.946;2023-04-06T02:24:46;28.70;;;17.27;;
31210;SDS011;17836;50.948;3.946;2023-04-06T02:27:11;29.73;;;17.40;;
31210;SDS011;17836;50.948;3.946;2023-04-06T02:29:37;26.52;;;17.98;;
31210;SDS011;17836;50.948;3.946;2023-04-06T02:32:02;27.25;;;17.05;;
31210;SDS011;17836;50.948;3.946;2023-04-06T02:34:27;30.15;;;17.55;;
31210;SDS011;17836;50.948;3.946;2023-04-06T02:36:57;25.55;;;17.65;;
31210;SDS011;17836;50.948;3.946;2023-04-06T02:39:22;30.52;;;17.40;;
31210;SDS011;17836;50.948;3.946;2023-04-06T02:41:47;28.67;;;18.40;;
31210;SDS011;17836;50.948;3.946;2023-04-06T02:44:13;28.83;;;17.50;;
31210;SDS011;17836;50.948;3.946;2023-04-06T02:46:38;35.37;;;19.43;;
31210;SDS011;17836;50.948;3.946;2023-04-06T02:49:05;35.17;;;18.20;;
31210;SDS011;17836;50.948;3.946;2023-04-06T02:51:31;31.23;;;17.05;;
31210;SDS011;17836;50.948;3.946;2023-04-06T02:53:59;26.80;;;17.33;;
31210;SDS011;17836;50.948;3.946;2023-04-06T02:56:24;28.83;;;17.63;;
31210;SDS011;17836;50.948;3.946;2023-04-06T02:58:49;28.25;;;18.30;;
31210;SDS011;17836;50.948;3.946;2023-04-06T03:01:17;25.48;;;18.25;;
31210;SDS011;17836;50.948;3.946;2023-04-06T03:03:45;33.33;;;18.83;;
31210;SDS011;17836;50.948;3.946;2023-04-06T03:06:12;29.90;;;18.40;;
31210;SDS011;17836;50.948;3.946;2023-04-06T03:08:38;29.02;;;18.65;;
31210;SDS011;17836;50.948;3.946;2023-04-06T03:11:03;26.83;;;17.88;;
31210;SDS011;17836;50.948;3.946;2023-04-06T03:13:28;27.00;;;18.25;;
31210;SDS011;17836;50.948;3.946;2023-04-06T03:15:54;26.90;;;19.13;;
31210;SDS011;17836;50.948;3.946;2023-04-06T03:18:22;32.22;;;18.83;;
31210;SDS011;17836;50.948;3.946;2023-04-06T03:20:48;27.13;;;18.58;;
31210;SDS011;17836;50.948;3.946;2023-04-06T03:23:13;31.52;;;20.33;;
31210;SDS011;17836;50.948;3.946;2023-04-06T03:25:39;29.60;;;19.52;;
31210;SDS011;17836;50.948;3.946;2023-04-06T03:28:07;27.75;;;18.70;;
31210;SDS011;17836;50.948;3.946;2023-04-06T03:30:32;26.50;;;18.70;;
31210;SDS011;17836;50.948;3.946;2023-04-06T03:33:00;35.45;;;20.33;;
31210;SDS011;17836;50.948;3.946;2023-04-06T03:35:27;32.40;;;19.08;;
31210;SDS011;17836;50.948;3.946;2023-04-06T03:37:55;30.10;;;18.70;;
31210;SDS011;17836;50.948;3.946;2023-04-06T03:40:20;29.92;;;19.42;;
31210;SDS011;17836;50.948;3.946;2023-04-06T03:42:48;28.73;;;19.08;;
31210;SDS011;17836;50.948;3.946;2023-04-06T03:45:13;30.42;;;19.92;;
31210;SDS011;17836;50.948;3.946;2023-04-06T03:47:41;30.08;;;20.15;;
31210;SDS011;17836;50.948;3.946;2023-04-06T03:50:06;25.05;;;19.17;;
31210;SDS011;17836;50.948;3.946;2023-04-06T03:52:32;28.80;;;19.42;;
31210;SDS011;17836;50.948;3.946;2023-04-06T03:54:57;32.42;;;20.40;;
31210;SDS011;17836;50.948;3.946;2023-04-06T03:57:22;33.53;;;19.98;;
31210;SDS011;17836;50.948;3.946;2023-04-06T03:59:48;26.45;;;19.65;;
31210;SDS011;17836;50.948;3.946;2023-04-06T04:02:15;29.25;;;19.88;;
31210;SDS011;17836;50.948;3.946;2023-04-06T04:04:40;28.48;;;20.02;;
31210;SDS011;17836;50.948;3.946;2023-04-06T04:07:06;27.52;;;19.48;;
31210;SDS011;17836;50.948;3.946;2023-04-06T04:09:33;31.98;;;22.17;;
31210;SDS011;17836;50.948;3.946;2023-04-06T04:11:59;30.10;;;21.35;;
31210;SDS011;17836;50.948;3.946;2023-04-06T04:14:24;31.60;;;21.83;;
31210;SDS011;17836;50.948;3.946;2023-04-06T04:16:50;33.67;;;20.58;;
31210;SDS011;17836;50.948;3.946;2023-04-06T04:19:15;28.40;;;21.02;;
31210;SDS011;17836;50.948;3.946;2023-04-06T04:21:44;24.63;;;18.97;;
31210;SDS011;17836;50.948;3.946;2023-04-06T04:24:10;27.60;;;19.73;;
31210;SDS011;17836;50.948;3.946;2023-04-06T04:26:38;28.33;;;20.38;;
31210;SDS011;17836;50.948;3.946;2023-04-06T04:29:04;28.27;;;20.40;;
31210;SDS011;17836;50.948;3.946;2023-04-06T04:31:30;30.52;;;22.15;;
31210;SDS011;17836;50.948;3.946;2023-04-06T04:33:55;28.23;;;21.33;;
31210;SDS011;17836;50.948;3.946;2023-04-06T04:36:20;32.35;;;21.00;;
31210;SDS011;17836;50.948;3.946;2023-04-06T04:38:46;31.57;;;20.97;;
31210;SDS011;17836;50.948;3.946;2023-04-06T04:41:11;30.50;;;21.23;;
31210;SDS011;17836;50.948;3.946;2023-04-06T04:43:36;33.70;;;21.38;;
31210;SDS011;17836;50.948;3.946;2023-04-06T04:46:02;31.10;;;21.02;;
31210;SDS011;17836;50.948;3.946;2023-04-06T04:48:28;30.98;;;20.92;;
31210;SDS011;17836;50.948;3.946;2023-04-06T04:50:54;29.40;;;21.50;;
31210;SDS011;17836;50.948;3.946;2023-04-06T04:53:20;31.60;;;22.27;;
31210;SDS011;17836;50.948;3.946;2023-04-06T04:55:45;29.88;;;20.77;;
31210;SDS011;17836;50.948;3.946;2023-04-06T04:58:10;31.27;;;22.55;;
31210;SDS011;17836;50.948;3.946;2023-04-06T05:00:40;34.72;;;22.17;;
31210;SDS011;17836;50.948;3.946;2023-04-06T05:03:05;32.07;;;22.67;;
31210;SDS011;17836;50.948;3.946;2023-04-06T05:05:31;33.85;;;21.83;;
31210;SDS011;17836;50.948;3.946;2023-04-06T05:07:56;29.15;;;22.60;;
31210;SDS011;17836;50.948;3.946;2023-04-06T05:10:21;30.48;;;21.33;;
31210;SDS011;17836;50.948;3.946;2023-04-06T05:12:47;35.35;;;22.48;;
31210;SDS011;17836;50.948;3.946;2023-04-06T05:15:14;35.65;;;22.30;;
31210;SDS011;17836;50.948;3.946;2023-04-06T05:17:40;31.70;;;22.25;;
31210;SDS011;17836;50.948;3.946;2023-04-06T05:20:05;29.55;;;21.80;;
31210;SDS011;17836;50.948;3.946;2023-04-06T05:22:31;30.85;;;21.88;;
31210;SDS011;17836;50.948;3.946;2023-04-06T05:24:56;30.47;;;23.07;;
31210;SDS011;17836;50.948;3.946;2023-04-06T05:27:23;37.25;;;22.00;;
31210;SDS011;17836;50.948;3.946;2023-04-06T05:29:49;36.30;;;22.58;;
31210;SDS011;17836;50.948;3.946;2023-04-06T05:32:15;33.95;;;22.33;;
31210;SDS011;17836;50.948;3.946;2023-04-06T05:34:40;34.05;;;21.95;;
31210;SDS011;17836;50.948;3.946;2023-04-06T05:37:05;31.08;;;22.30;;
31210;SDS011;17836;50.948;3.946;2023-04-06T05:39:31;37.45;;;22.55;;
31210;SDS011;17836;50.948;3.946;2023-04-06T05:41:56;36.80;;;24.40;;
31210;SDS011;17836;50.948;3.946;2023-04-06T05:44:21;34.78;;;22.25;;
31210;SDS011;17836;50.948;3.946;2023-04-06T05:46:47;31.92;;;21.80;;
31210;SDS011;17836;50.948;3.946;2023-04-06T05:49:12;29.27;;;21.95;;
31210;SDS011;17836;50.948;3.946;2023-04-06T05:51:37;34.80;;;21.58;;
31210;SDS011;17836;50.948;3.946;2023-04-06T05:54:02;33.08;;;21.80;;
31210;SDS011;17836;50.948;3.946;2023-04-06T05:56:28;31.63;;;22.13;;
31210;SDS011;17836;50.948;3.946;2023-04-06T05:58:57;33.40;;;22.33;;
31210;SDS011;17836;50.948;3.946;2023-04-06T06:01:22;29.65;;;21.15;;
31210;SDS011;17836;50.948;3.946;2023-04-06T06:03:50;30.25;;;21.42;;
31210;SDS011;17836;50.948;3.946;2023-04-06T06:06:17;31.23;;;22.88;;
31210;SDS011;17836;50.948;3.946;2023-04-06T06:08:45;35.65;;;22.90;;
31210;SDS011;17836;50.948;3.946;2023-04-06T06:11:11;27.15;;;20.45;;
31210;SDS011;17836;50.948;3.946;2023-04-06T06:13:36;30.50;;;21.02;;
31210;SDS011;17836;50.948;3.946;2023-04-06T06:16:04;38.78;;;21.17;;
31210;SDS011;17836;50.948;3.946;2023-04-06T06:18:30;27.98;;;19.95;;
31210;SDS011;17836;50.948;3.946;2023-04-06T06:20:55;28.73;;;20.88;;
31210;SDS011;17836;50.948;3.946;2023-04-06T06:23:21;25.33;;;18.30;;
31210;SDS011;17836;50.948;3.946;2023-04-06T06:25:46;25.55;;;16.58;;
31210;SDS011;17836;50.948;3.946;2023-04-06T06:28:11;26.95;;;17.83;;
31210;SDS011;17836;50.948;3.946;2023-04-06T06:30:36;22.58;;;17.58;;
31210;SDS011;17836;50.948;3.946;2023-04-06T06:33:02;32.40;;;18.38;;
31210;SDS011;17836;50.948;3.946;2023-04-06T06:35:30;29.17;;;19.83;;
31210;SDS011;17836;50.948;3.946;2023-04-06T06:37:55;34.90;;;19.33;;
31210;SDS011;17836;50.948;3.946;2023-04-06T06:40:21;40.03;;;22.85;;
31210;SDS011;17836;50.948;3.946;2023-04-06T06:42:48;35.05;;;21.75;;
31210;SDS011;17836;50.948;3.946;2023-04-06T06:45:14;27.92;;;19.17;;
31210;SDS011;17836;50.948;3.946;2023-04-06T06:47:41;35.35;;;20.73;;
31210;SDS011;17836;50.948;3.946;2023-04-06T06:50:07;27.80;;;19.88;;
31210;SDS011;17836;50.948;3.946;2023-04-06T06:52:32;29.00;;;19.98;;
31210;SDS011;17836;50.948;3.946;2023-04-06T06:54:57;33.90;;;20.48;;
31210;SDS011;17836;50.948;3.946;2023-04-06T06:57:23;27.90;;;19.50;;
31210;SDS011;17836;50.948;3.946;2023-04-06T06:59:50;28.38;;;18.85;;
31210;SDS011;17836;50.948;3.946;2023-04-06T07:02:18;30.40;;;19.80;;
31210;SDS011;17836;50.948;3.946;2023-04-06T07:04:47;27.90;;;19.88;;
31210;SDS011;17836;50.948;3.946;2023-04-06T07:07:12;34.97;;;19.23;;
31210;SDS011;17836;50.948;3.946;2023-04-06T07:09:37;26.80;;;19.50;;
31210;SDS011;17836;50.948;3.946;2023-04-06T07:12:02;33.25;;;20.85;;
31210;SDS011;17836;50.948;3.946;2023-04-06T07:14:28;34.58;;;20.48;;
31210;SDS011;17836;50.948;3.946;2023-04-06T07:16:53;32.60;;;20.42;;
31210;SDS011;17836;50.948;3.946;2023-04-06T07:19:18;28.02;;;19.15;;
31210;SDS011;17836;50.948;3.946;2023-04-06T07:21:44;30.70;;;19.08;;
31210;SDS011;17836;50.948;3.946;2023-04-06T07:24:09;29.70;;;19.77;;
31210;SDS011;17836;50.948;3.946;2023-04-06T07:26:35;27.55;;;17.95;;
31210;SDS011;17836;50.948;3.946;2023-04-06T07:29:02;27.05;;;18.05;;
31210;SDS011;17836;50.948;3.946;2023-04-06T07:31:27;22.63;;;16.00;;
31210;SDS011;17836;50.948;3.946;2023-04-06T07:33:53;21.13;;;15.93;;
31210;SDS011;17836;50.948;3.946;2023-04-06T07:36:20;22.05;;;15.13;;
31210;SDS011;17836;50.948;3.946;2023-04-06T07:38:45;18.83;;;15.05;;
31210;SDS011;17836;50.948;3.946;2023-04-06T07:41:11;25.52;;;16.42;;
31210;SDS011;17836;50.948;3.946;2023-04-06T07:43:36;22.75;;;14.10;;
31210;SDS011;17836;50.948;3.946;2023-04-06T07:46:02;19.17;;;14.38;;
31210;SDS011;17836;50.948;3.946;2023-04-06T07:48:28;17.02;;;13.88;;
31210;SDS011;17836;50.948;3.946;2023-04-06T07:51:00;22.75;;;15.38;;
31210;SDS011;17836;50.948;3.946;2023-04-06T07:53:25;27.08;;;16.98;;
31210;SDS011;17836;50.948;3.946;2023-04-06T07:55:50;14.48;;;12.95;;
31210;SDS011;17836;50.948;3.946;2023-04-06T07:58:15;17.27;;;12.97;;
31210;SDS011;17836;50.948;3.946;2023-04-06T08:00:41;13.90;;;10.75;;
31210;SDS011;17836;50.948;3.946;2023-04-06T08:03:06;11.98;;;10.77;;
31210;SDS011;17836;50.948;3.946;2023-04-06T08:05:32;12.57;;;10.32;;
31210;SDS011;17836;50.948;3.946;2023-04-06T08:07:57;13.68;;;10.55;;
31210;SDS011;17836;50.948;3.946;2023-04-06T08:10:22;14.38;;;10.85;;
31210;SDS011;17836;50.948;3.946;2023-04-06T08:12:48;13.60;;;10.02;;
31210;SDS011;17836;50.948;3.946;2023-04-06T08:15:14;10.20;;;9.18;;
31210;SDS011;17836;50.948;3.946;2023-04-06T08:17:42;12.45;;;9.48;;
31210;SDS011;17836;50.948;3.946;2023-04-06T08:20:07;13.32;;;11.05;;
31210;SDS011;17836;50.948;3.946;2023-04-06T08:22:33;11.25;;;9.90;;
31210;SDS011;17836;50.948;3.946;2023-04-06T08:25:00;14.43;;;10.73;;
31210;SDS011;17836;50.948;3.946;2023-04-06T08:27:25;14.83;;;11.87;;
31210;SDS011;17836;50.948;3.946;2023-04-06T08:29:51;14.65;;;10.98;;
31210;SDS011;17836;50.948;3.946;2023-04-06T08:32:16;15.70;;;11.63;;
31210;SDS011;17836;50.948;3.946;2023-04-06T08:34:41;16.73;;;11.20;;
31210;SDS011;17836;50.948;3.946;2023-04-06T08:37:07;13.23;;;11.47;;
31210;SDS011;17836;50.948;3.946;2023-04-06T08:39:32;19.40;;;10.93;;
31210;SDS011;17836;50.948;3.946;2023-04-06T08:41:58;12.93;;;11.13;;
31210;SDS011;17836;50.948;3.946;2023-04-06T08:44:25;13.40;;;10.77;;
31210;SDS011;17836;50.948;3.946;2023-04-06T08:46:51;12.55;;;10.52;;
31210;SDS011;17836;50.948;3.946;2023-04-06T08:49:17;13.75;;;10.57;;
31210;SDS011;17836;50.948;3.946;2023-04-06T08:51:43;15.48;;;11.00;;
31210;SDS011;17836;50.948;3.946;2023-04-06T08:54:09;12.23;;;10.32;;
31210;SDS011;17836;50.948;3.946;2023-04-06T08:56:37;16.25;;;11.93;;
31210;SDS011;17836;50.948;3.946;2023-04-06T08:59:02;16.05;;;11.32;;
31210;SDS011;17836;50.948;3.946;2023-04-06T09:01:28;14.55;;;10.73;;
31210;SDS011;17836;50.948;3.946;2023-04-06T09:03:55;13.40;;;11.25;;
31210;SDS011;17836;50.948;3.946;2023-04-06T09:06:24;14.60;;;10.93;;
31210;SDS011;17836;50.948;3.946;2023-04-06T09:08:51;19.30;;;12.00;;
31210;SDS011;17836;50.948;3.946;2023-04-06T09:11:17;14.25;;;11.23;;
31210;SDS011;17836;50.948;3.946;2023-04-06T09:13:48;15.52;;;11.85;;
31210;SDS011;17836;50.948;3.946;2023-04-06T09:16:14;15.85;;;11.93;;
31210;SDS011;17836;50.948;3.946;2023-04-06T09:18:40;13.40;;;11.43;;
31210;SDS011;17836;50.948;3.946;2023-04-06T09:21:06;14.23;;;10.95;;
31210;SDS011;17836;50.948;3.946;2023-04-06T09:23:32;16.00;;;11.65;;
31210;SDS011;17836;50.948;3.946;2023-04-06T09:26:18;14.05;;;10.85;;
31210;SDS011;17836;50.948;3.946;2023-04-06T09:28:44;14.95;;;12.05;;
31210;SDS011;17836;50.948;3.946;2023-04-06T09:31:12;16.58;;;11.63;;
31210;SDS011;17836;50.948;3.946;2023-04-06T09:33:39;13.45;;;10.57;;
31210;SDS011;17836;50.948;3.946;2023-04-06T09:36:05;15.18;;;11.68;;
31210;SDS011;17836;50.948;3.946;2023-04-06T09:38:31;14.80;;;11.63;;
31210;SDS011;17836;50.948;3.946;2023-04-06T09:40:56;15.97;;;12.40;;
31210;SDS011;17836;50.948;3.946;2023-04-06T09:43:25;16.75;;;12.32;;
31210;SDS011;17836;50.948;3.946;2023-04-06T09:45:51;13.85;;;10.10;;
31210;SDS011;17836;50.948;3.946;2023-04-06T09:48:17;13.80;;;11.38;;
31210;SDS011;17836;50.948;3.946;2023-04-06T09:50:43;15.93;;;11.48;;
31210;SDS011;17836;50.948;3.946;2023-04-06T09:53:08;17.80;;;11.65;;
31210;SDS011;17836;50.948;3.946;2023-04-06T09:55:35;15.98;;;11.90;;
31210;SDS011;17836;50.948;3.946;2023-04-06T09:58:04;15.32;;;11.73;;
31210;SDS011;17836;50.948;3.946;2023-04-06T10:00:32;13.13;;;11.75;;
31210;SDS011;17836;50.948;3.946;2023-04-06T10:07:55;12.18;;;10.88;;
31210;SDS011;17836;50.948;3.946;2023-04-06T10:10:22;13.98;;;11.50;;
31210;SDS011;17836;50.948;3.946;2023-04-06T10:12:47;13.85;;;11.27;;
31210;SDS011;17836;50.948;3.946;2023-04-06T10:15:16;14.85;;;11.98;;
31210;SDS011;17836;50.948;3.946;2023-04-06T10:17:41;15.38;;;11.90;;
31210;SDS011;17836;50.948;3.946;2023-04-06T10:20:18;15.23;;;11.60;;
31210;SDS011;17836;50.948;3.946;2023-04-06T10:22:51;16.00;;;12.00;;
31210;SDS011;17836;50.948;3.946;2023-04-06T10:25:29;15.32;;;11.93;;
31210;SDS011;17836;50.948;3.946;2023-04-06T10:30:26;14.98;;;11.95;;
31210;SDS011;17836;50.948;3.946;2023-04-06T10:32:51;14.27;;;11.15;;
31210;SDS011;17836;50.948;3.946;2023-04-06T10:35:16;12.38;;;11.05;;
31210;SDS011;17836;50.948;3.946;2023-04-06T10:37:46;13.13;;;10.45;;
31210;SDS011;17836;50.948;3.946;2023-04-06T10:40:19;14.77;;;12.68;;
31210;SDS011;17836;50.948;3.946;2023-04-06T10:42:47;13.68;;;12.18;;
31210;SDS011;17836;50.948;3.946;2023-04-06T10:45:19;13.55;;;11.52;;
31210;SDS011;17836;50.948;3.946;2023-04-06T10:47:45;13.27;;;11.95;;
31210;SDS011;17836;50.948;3.946;2023-04-06T10:50:12;12.80;;;11.50;;
31210;SDS011;17836;50.948;3.946;2023-04-06T10:52:42;14.20;;;11.23;;
31210;SDS011;17836;50.948;3.946;2023-04-06T10:55:08;14.32;;;12.27;;
31210;SDS011;17836;50.948;3.946;2023-04-06T10:57:35;14.65;;;12.90;;
31210;SDS011;17836;50.948;3.946;2023-04-06T11:00:03;14.40;;;12.68;;
31210;SDS011;17836;50.948;3.946;2023-04-06T11:02:28;12.15;;;10.95;;
31210;SDS011;17836;50.948;3.946;2023-04-06T11:04:55;14.73;;;12.52;;
31210;SDS011;17836;50.948;3.946;2023-04-06T11:07:25;13.70;;;11.35;;
31210;SDS011;17836;50.948;3.946;2023-04-06T11:09:52;13.95;;;11.65;;
31210;SDS011;17836;50.948;3.946;2023-04-06T11:12:24;13.85;;;11.98;;
31210;SDS011;17836;50.948;3.946;2023-04-06T11:14:57;12.73;;;11.45;;
31210;SDS011;17836;50.948;3.946;2023-04-06T11:17:28;14.68;;;12.50;;
31210;SDS011;17836;50.948;3.946;2023-04-06T11:19:55;14.82;;;12.45;;
31210;SDS011;17836;50.948;3.946;2023-04-06T11:22:21;17.63;;;12.75;;
31210;SDS011;17836;50.948;3.946;2023-04-06T11:24:48;13.38;;;11.60;;
31210;SDS011;17836;50.948;3.946;2023-04-06T11:27:14;12.35;;;11.00;;
31210;SDS011;17836;50.948;3.946;2023-04-06T11:29:43;12.70;;;10.43;;
31210;SDS011;17836;50.948;3.946;2023-04-06T11:32:11;12.77;;;11.45;;
31210;SDS011;17836;50.948;3.946;2023-04-06T11:34:37;16.05;;;11.82;;
31210;SDS011;17836;50.948;3.946;2023-04-06T11:37:04;11.20;;;10.07;;
31210;SDS011;17836;50.948;3.946;2023-04-06T11:39:32;11.77;;;10.68;;
31210;SDS011;17836;50.948;3.946;2023-04-06T11:42:01;13.50;;;11.73;;
31210;SDS011;17836;50.948;3.946;2023-04-06T11:44:33;12.38;;;9.90;;
31210;SDS011;17836;50.948;3.946;2023-04-06T11:46:59;10.48;;;9.48;;
31210;SDS011;17836;50.948;3.946;2023-04-06T11:49:28;11.85;;;9.73;;
31210;SDS011;17836;50.948;3.946;2023-04-06T11:51:53;10.27;;;9.23;;
31210;SDS011;17836;50.948;3.946;2023-04-06T11:54:29;9.88;;;8.95;;
31210;SDS011;17836;50.948;3.946;2023-04-06T11:56:54;9.63;;;8.75;;
31210;SDS011;17836;50.948;3.946;2023-04-06T11:59:21;10.65;;;9.40;;
31210;SDS011;17836;50.948;3.946;2023-04-06T12:01:47;10.70;;;9.57;;
31210;SDS011;17836;50.948;3.946;2023-04-06T12:04:17;9.95;;;9.05;;
31210;SDS011;17836;50.948;3.946;2023-04-06T12:06:42;10.60;;;9.65;;
31210;SDS011;17836;50.948;3.946;2023-04-06T12:09:08;9.60;;;8.73;;
31210;SDS011;17836;50.948;3.946;2023-04-06T12:11:33;9.20;;;8.27;;
31210;SDS011;17836;50.948;3.946;2023-04-06T12:13:58;9.05;;;8.25;;
31210;SDS011;17836;50.948;3.946;2023-04-06T12:16:29;9.00;;;8.20;;
31210;SDS011;17836;50.948;3.946;2023-04-06T12:18:55;8.93;;;8.02;;
31210;SDS011;17836;50.948;3.946;2023-04-06T12:21:23;8.07;;;7.28;;
31210;SDS011;17836;50.948;3.946;2023-04-06T12:23:48;9.30;;;8.40;;
31210;SDS011;17836;50.948;3.946;2023-04-06T12:26:16;9.45;;;8.52;;
31210;SDS011;17836;50.948;3.946;2023-04-06T12:28:41;9.57;;;8.67;;
31210;SDS011;17836;50.948;3.946;2023-04-06T12:31:07;10.20;;;9.13;;
31210;SDS011;17836;50.948;3.946;2023-04-06T12:33:39;10.43;;;9.48;;
31210;SDS011;17836;50.948;3.946;2023-04-06T12:36:06;11.55;;;10.13;;
31210;SDS011;17836;50.948;3.946;2023-04-06T12:38:38;10.65;;;9.57;;
31210;SDS011;17836;50.948;3.946;2023-04-06T12:41:05;11.45;;;10.40;;
31210;SDS011;17836;50.948;3.946;2023-04-06T12:43:30;12.50;;;11.18;;
31210;SDS011;17836;50.948;3.946;2023-04-06T12:45:55;13.65;;;12.35;;
31210;SDS011;17836;50.948;3.946;2023-04-06T12:48:21;10.75;;;9.65;;
31210;SDS011;17836;50.948;3.946;2023-04-06T12:50:53;13.65;;;11.73;;
31210;SDS011;17836;50.948;3.946;2023-04-06T12:53:21;14.57;;;12.95;;
31210;SDS011;17836;50.948;3.946;2023-04-06T12:55:46;13.73;;;12.15;;
31210;SDS011;17836;50.948;3.946;2023-04-06T12:58:12;13.32;;;12.02;;
31210;SDS011;17836;50.948;3.946;2023-04-06T13:00:37;13.73;;;12.02;;
31210;SDS011;17836;50.948;3.946;2023-04-06T13:03:02;12.60;;;11.40;;
31210;SDS011;17836;50.948;3.946;2023-04-06T13:05:27;13.90;;;12.43;;
31210;SDS011;17836;50.948;3.946;2023-04-06T13:07:53;13.57;;;12.20;;
31210;SDS011;17836;50.948;3.946;2023-04-06T13:10:18;14.55;;;11.55;;
31210;SDS011;17836;50.948;3.946;2023-04-06T13:12:43;12.48;;;11.18;;
31210;SDS011;17836;50.948;3.946;2023-04-06T13:15:11;13.10;;;11.77;;
31210;SDS011;17836;50.948;3.946;2023-04-06T13:17:36;13.35;;;11.95;;
31210;SDS011;17836;50.948;3.946;2023-04-06T13:20:04;14.90;;;12.30;;
31210;SDS011;17836;50.948;3.946;2023-04-06T13:22:31;13.23;;;11.93;;
31210;SDS011;17836;50.948;3.946;2023-04-06T13:24:57;15.02;;;12.75;;
31210;SDS011;17836;50.948;3.946;2023-04-06T13:27:24;14.40;;;12.25;;
31210;SDS011;17836;50.948;3.946;2023-04-06T13:29:50;13.00;;;11.77;;
31210;SDS011;17836;50.948;3.946;2023-04-06T13:32:15;11.65;;;10.50;;
31210;SDS011;17836;50.948;3.946;2023-04-06T13:34:40;15.93;;;12.80;;
31210;SDS011;17836;50.948;3.946;2023-04-06T13:37:10;13.90;;;12.45;;
31210;SDS011;17836;50.948;3.946;2023-04-06T13:39:40;13.57;;;12.18;;
31210;SDS011;17836;50.948;3.946;2023-04-06T13:42:05;13.85;;;12.40;;
31210;SDS011;17836;50.948;3.946;2023-04-06T13:44:34;12.80;;;11.35;;
31210;SDS011;17836;50.948;3.946;2023-04-06T13:47:00;13.00;;;11.85;;
31210;SDS011;17836;50.948;3.946;2023-04-06T13:49:25;13.13;;;11.73;;
31210;SDS011;17836;50.948;3.946;2023-04-06T13:51:51;16.58;;;12.32;;
31210;SDS011;17836;50.948;3.946;2023-04-06T13:54:16;13.35;;;12.05;;
31210;SDS011;17836;50.948;3.946;2023-04-06T13:56:42;13.67;;;12.37;;
31210;SDS011;17836;50.948;3.946;2023-04-06T13:59:07;14.57;;;13.00;;
31210;SDS011;17836;50.948;3.946;2023-04-06T14:01:32;14.15;;;12.85;;
31210;SDS011;17836;50.948;3.946;2023-04-06T14:03:57;13.98;;;12.60;;
31210;SDS011;17836;50.948;3.946;2023-04-06T14:06:23;14.87;;;13.37;;
31210;SDS011;17836;50.948;3.946;2023-04-06T14:08:50;14.53;;;13.03;;
31210;SDS011;17836;50.948;3.946;2023-04-06T14:11:16;15.77;;;13.50;;
31210;SDS011;17836;50.948;3.946;2023-04-06T14:13:42;18.50;;;14.77;;
31210;SDS011;17836;50.948;3.946;2023-04-06T14:16:09;14.98;;;13.45;;
31210;SDS011;17836;50.948;3.946;2023-04-06T14:18:36;17.05;;;14.20;;
31210;SDS011;17836;50.948;3.946;2023-04-06T14:21:01;19.33;;;15.18;;
31210;SDS011;17836;50.948;3.946;2023-04-06T14:23:27;16.52;;;14.57;;
31210;SDS011;17836;50.948;3.946;2023-04-06T14:26:02;19.10;;;15.38;;